createdAt,value
2018-02-04T00:00:53.793Z,42.05
2018-02-04T00:01:54.414Z,42.12
2018-02-04T00:02:53.994Z,42.1
2018-02-04T00:03:53.572Z,42.12
2018-02-04T00:04:54.172Z,42.1
2018-02-04T00:05:53.770Z,42.18
2018-02-04T00:06:54.415Z,42.02
2018-02-04T00:07:54.000Z,42.11
2018-02-04T00:08:53.570Z,42.06
2018-02-04T00:09:54.197Z,42.14
2018-02-04T00:10:53.791Z,42.19
2018-02-04T00:11:54.406Z,42.11
2018-02-04T00:12:54.020Z,42.17
2018-02-04T00:13:53.591Z,42.17
2018-02-04T00:14:54.280Z,42.05
2018-02-04T00:15:53.859Z,42.12
2018-02-04T00:16:54.444Z,42.14
2018-02-04T00:17:54.048Z,42.17
2018-02-04T00:18:53.642Z,42.08
2018-02-04T00:19:54.216Z,42.1
2018-02-04T00:20:53.896Z,42.07
2018-02-04T00:21:53.480Z,42.08
2018-02-04T00:22:54.357Z,42.01
2018-02-04T00:23:54.030Z,42.12
2018-02-04T00:24:53.626Z,42.1
2018-02-04T00:25:54.204Z,42.11
2018-02-04T00:26:53.868Z,42.14
2018-02-04T00:27:54.477Z,42.12
2018-02-04T00:28:54.337Z,42.11
2018-02-04T00:29:54.281Z,42.06
2018-02-04T00:30:54.869Z,42.08
2018-02-04T00:31:54.465Z,42.13
2018-02-04T00:32:55.051Z,42.14
2018-02-04T00:33:54.749Z,42.12
2018-02-04T00:34:54.379Z,42.12
2018-02-04T00:35:54.950Z,42.08
2018-02-04T00:36:54.538Z,42.16
2018-02-04T00:37:55.117Z,42.1
2018-02-04T00:38:54.717Z,42.06
2018-02-04T00:39:54.303Z,42.09
2018-02-04T00:40:54.926Z,42.05
2018-02-04T00:41:54.513Z,42.12
2018-02-04T00:42:55.137Z,42.1
2018-02-04T00:43:54.720Z,42.1
2018-02-04T00:44:54.307Z,42.13
2018-02-04T00:45:54.898Z,42.13
2018-02-04T00:46:54.491Z,42.12
2018-02-04T00:47:55.086Z,42.12
2018-02-04T00:48:54.687Z,42.05
2018-02-04T00:49:54.308Z,42.03
2018-02-04T00:50:54.908Z,42.06
2018-02-04T00:51:54.499Z,42.09
2018-02-04T00:52:55.102Z,42.11
2018-02-04T00:53:54.710Z,42.09
2018-02-04T00:54:54.388Z,42.09
2018-02-04T00:55:55.000Z,42.1
2018-02-04T00:56:54.593Z,42.04
2018-02-04T00:57:54.218Z,42.18
2018-02-04T00:58:54.808Z,42.11
2018-02-04T00:59:54.426Z,42.08
2018-02-04T01:00:54.049Z,42.06
2018-02-04T01:01:53.635Z,42.01
2018-02-04T01:02:54.218Z,42.04
2018-02-04T01:03:53.800Z,42.08
2018-02-04T01:04:53.397Z,42
2018-02-04T01:05:54.006Z,42.05
2018-02-04T01:06:53.589Z,42.08
2018-02-04T01:07:54.189Z,42.04
2018-02-04T01:08:53.790Z,42.13
2018-02-04T01:09:54.387Z,42.09
2018-02-04T01:10:53.982Z,42.11
2018-02-04T01:11:53.607Z,42.06
2018-02-04T01:12:54.187Z,42.11
2018-02-04T01:13:53.885Z,42.13
2018-02-04T01:14:53.465Z,42.09
2018-02-04T01:15:54.066Z,42.05
2018-02-04T01:16:53.747Z,42.11
2018-02-04T01:17:54.321Z,42.03
2018-02-04T01:18:53.911Z,42.08
2018-02-04T01:19:53.493Z,42.03
2018-02-04T01:20:54.088Z,42.03
2018-02-04T01:21:53.681Z,42.12
2018-02-04T01:22:54.348Z,42.11
2018-02-04T01:23:53.936Z,42.11
2018-02-04T01:24:53.534Z,42.02
2018-02-04T01:25:54.110Z,42.1
2018-02-04T01:26:53.708Z,42.05
2018-02-04T01:27:54.308Z,42.09
2018-02-04T01:28:53.905Z,42.04
2018-02-04T01:29:53.493Z,42.03
2018-02-04T01:30:54.321Z,42.05
2018-02-04T01:31:53.913Z,41.99
2018-02-04T01:32:53.556Z,42.08
2018-02-04T01:33:54.167Z,42.06
2018-02-04T01:34:53.750Z,42.05
2018-02-04T01:35:53.428Z,42.09
2018-02-04T01:36:54.034Z,42.07
2018-02-04T01:37:53.643Z,42.02
2018-02-04T01:38:54.223Z,42.1
2018-02-04T01:39:53.808Z,42.1
2018-02-04T01:40:53.392Z,42.11
2018-02-04T01:41:54.064Z,42.1
2018-02-04T01:42:53.669Z,42.04
2018-02-04T01:43:54.254Z,42.03
2018-02-04T01:44:53.937Z,42.09
2018-02-04T01:45:53.535Z,42.11
2018-02-04T01:46:54.128Z,42.08
2018-02-04T01:47:53.708Z,42.16
2018-02-04T01:48:53.314Z,42.14
2018-02-04T01:50:53.287Z,42.13
2018-02-04T01:51:53.885Z,42.13
2018-02-04T01:52:53.463Z,42.05
2018-02-04T01:53:54.090Z,42.13
2018-02-04T01:54:53.673Z,42.12
2018-02-04T01:55:54.260Z,42.07
2018-02-04T01:56:53.861Z,42.13
2018-02-04T01:57:53.464Z,42.06
2018-02-04T01:58:54.103Z,42.17
2018-02-04T01:59:53.684Z,42.16
2018-02-04T02:00:53.376Z,42.15
2018-02-04T02:01:54.003Z,42.13
2018-02-04T02:02:54.585Z,42.03
2018-02-04T02:03:54.194Z,42.17
2018-02-04T02:04:54.776Z,42.14
2018-02-04T02:05:54.371Z,42.12
2018-02-04T02:06:54.966Z,42.19
2018-02-04T02:07:54.549Z,42.15
2018-02-04T02:08:54.132Z,42.1
2018-02-04T02:09:54.804Z,42.16
2018-02-04T02:10:54.397Z,42.15
2018-02-04T02:11:53.995Z,42.15
2018-02-04T02:12:54.572Z,42.12
2018-02-04T02:13:54.151Z,42.12
2018-02-04T02:14:54.744Z,42.12
2018-02-04T02:15:54.552Z,42.16
2018-02-04T02:16:54.144Z,42.13
2018-02-04T02:17:55.012Z,42.08
2018-02-04T02:18:54.756Z,42.1
2018-02-04T02:19:54.336Z,42.13
2018-02-04T02:20:54.915Z,42.09
2018-02-04T02:21:54.514Z,42.08
2018-02-04T02:22:54.122Z,42.06
2018-02-04T02:23:54.729Z,42.12
2018-02-04T02:24:54.330Z,42.16
2018-02-04T02:25:54.908Z,42.11
2018-02-04T02:26:54.498Z,42.13
2018-02-04T02:27:54.086Z,42.13
2018-02-04T02:28:54.672Z,42.22
2018-02-04T02:29:54.264Z,42.08
2018-02-04T02:30:54.847Z,42.14
2018-02-04T02:31:54.722Z,42.18
2018-02-04T02:32:54.328Z,42.14
2018-02-04T02:33:53.905Z,42.1
2018-02-04T02:34:54.510Z,42.17
2018-02-04T02:35:54.104Z,42.18
2018-02-04T02:36:53.694Z,42.17
2018-02-04T02:37:54.392Z,42.11
2018-02-04T02:38:53.973Z,42.18
2018-02-04T02:39:54.549Z,42.14
2018-02-04T02:40:54.164Z,42.18
2018-02-04T02:41:53.754Z,42.18
2018-02-04T02:42:54.371Z,42.17
2018-02-04T02:43:53.954Z,42.24
2018-02-04T02:44:54.553Z,42.2
2018-02-04T02:45:54.147Z,42.19
2018-02-04T02:46:53.742Z,42.26
2018-02-04T02:47:54.324Z,42.19
2018-02-04T02:48:53.913Z,42.23
2018-02-04T02:49:54.602Z,42.25
2018-02-04T02:50:54.189Z,42.23
2018-02-04T02:51:53.799Z,42.26
2018-02-04T02:52:54.402Z,42.23
2018-02-04T02:53:53.983Z,42.16
2018-02-04T02:54:54.567Z,42.17
2018-02-04T02:55:54.151Z,42.22
2018-02-04T02:56:53.815Z,42.12
2018-02-04T02:57:54.418Z,42.19
2018-02-04T02:58:54.023Z,42.15
2018-02-04T02:59:54.688Z,42.18
2018-02-04T03:00:54.276Z,42.24
2018-02-04T03:01:53.889Z,42.18
2018-02-04T03:02:54.549Z,42.17
2018-02-04T03:03:54.131Z,42.16
2018-02-04T03:04:53.743Z,42.22
2018-02-04T03:05:54.453Z,42.14
2018-02-04T03:06:54.042Z,42.12
2018-02-04T03:07:53.651Z,42.2
2018-02-04T03:08:54.257Z,42.19
2018-02-04T03:09:53.845Z,42.21
2018-02-04T03:10:54.428Z,42.17
2018-02-04T03:11:54.045Z,42.16
2018-02-04T03:12:53.621Z,42.18
2018-02-04T03:13:54.208Z,42.21
2018-02-04T03:14:53.795Z,42.18
2018-02-04T03:15:54.389Z,42.21
2018-02-04T03:16:53.988Z,42.22
2018-02-04T03:17:53.581Z,42.13
2018-02-04T03:18:54.194Z,42.28
2018-02-04T03:19:53.783Z,42.23
2018-02-04T03:20:54.377Z,42.21
2018-02-04T03:21:53.954Z,42.25
2018-02-04T03:22:53.551Z,42.28
2018-02-04T03:23:54.137Z,42.31
2018-02-04T03:24:53.932Z,42.27
2018-02-04T03:25:53.516Z,42.28
2018-02-04T03:26:54.153Z,42.23
2018-02-04T03:27:53.751Z,42.24
2018-02-04T03:28:54.341Z,42.22
2018-02-04T03:29:53.968Z,42.21
2018-02-04T03:30:53.541Z,42.21
2018-02-04T03:31:54.130Z,42.24
2018-02-04T03:32:53.921Z,42.24
2018-02-04T03:33:53.581Z,42.22
2018-02-04T03:34:54.162Z,42.24
2018-02-04T03:35:53.754Z,42.19
2018-02-04T03:36:54.375Z,42.21
2018-02-04T03:37:53.947Z,42.19
2018-02-04T03:38:53.543Z,42.14
2018-02-04T03:39:54.151Z,42.19
2018-02-04T03:40:53.745Z,42.18
2018-02-04T03:41:54.323Z,42.22
2018-02-04T03:42:53.917Z,42.21
2018-02-04T03:43:54.512Z,42.2
2018-02-04T03:44:54.387Z,42.23
2018-02-04T03:45:53.984Z,42.23
2018-02-04T03:46:53.687Z,42.25
2018-02-04T03:47:54.277Z,42.23
2018-02-04T03:48:53.855Z,42.21
2018-02-04T03:49:54.494Z,42.28
2018-02-04T03:50:54.087Z,42.2
2018-02-04T03:51:53.683Z,42.25
2018-02-04T03:52:54.277Z,42.21
2018-02-04T03:53:53.861Z,42.26
2018-02-04T03:54:54.455Z,42.24
2018-02-04T03:55:54.224Z,42.23
2018-02-04T03:56:53.802Z,42.28
2018-02-04T03:57:54.377Z,42.23
2018-02-04T03:58:54.051Z,42.26
2018-02-04T03:59:53.676Z,42.23
2018-02-04T04:00:54.260Z,42.22
2018-02-04T04:01:53.913Z,42.27
2018-02-04T04:02:54.504Z,42.25
2018-02-04T04:03:54.163Z,42.18
2018-02-04T04:04:54.841Z,42.23
2018-02-04T04:05:54.444Z,42.28
2018-02-04T04:06:55.054Z,42.25
2018-02-04T04:07:54.684Z,42.22
2018-02-04T04:08:54.267Z,42.18
2018-02-04T04:09:54.868Z,42.19
2018-02-04T04:10:54.506Z,42.21
2018-02-04T04:11:54.099Z,42.22
2018-02-04T04:12:54.685Z,42.21
2018-02-04T04:13:54.277Z,42.27
2018-02-04T04:14:54.861Z,42.23
2018-02-04T04:15:54.460Z,42.16
2018-02-04T04:16:55.040Z,42.25
2018-02-04T04:17:54.619Z,42.25
2018-02-04T04:18:54.213Z,42.24
2018-02-04T04:19:54.812Z,42.27
2018-02-04T04:20:54.408Z,42.3
2018-02-04T04:21:55.004Z,42.23
2018-02-04T04:22:54.596Z,42.23
2018-02-04T04:23:54.310Z,42.25
2018-02-04T04:24:54.898Z,42.23
2018-02-04T04:25:54.474Z,42.27
2018-02-04T04:26:55.037Z,42.24
2018-02-04T04:27:54.615Z,42.19
2018-02-04T04:28:54.192Z,42.2
2018-02-04T04:29:54.852Z,42.23
2018-02-04T04:30:54.474Z,42.23
2018-02-04T04:31:55.052Z,42.23
2018-02-04T04:32:54.737Z,42.27
2018-02-04T04:33:54.558Z,42.22
2018-02-04T04:34:54.164Z,42.28
2018-02-04T04:35:53.749Z,42.25
2018-02-04T04:36:54.326Z,42.27
2018-02-04T04:37:53.906Z,42.29
2018-02-04T04:38:54.499Z,42.28
2018-02-04T04:39:54.424Z,42.22
2018-02-04T04:40:54.044Z,42.25
2018-02-04T04:41:53.662Z,42.28
2018-02-04T04:42:54.247Z,42.29
2018-02-04T04:43:53.834Z,42.33
2018-02-04T04:44:54.445Z,42.29
2018-02-04T04:45:54.134Z,42.25
2018-02-04T04:46:53.740Z,42.25
2018-02-04T04:47:54.324Z,42.31
2018-02-04T04:48:53.917Z,42.29
2018-02-04T04:49:53.507Z,42.24
2018-02-04T04:50:54.086Z,42.28
2018-02-04T04:51:53.687Z,42.28
2018-02-04T04:52:54.259Z,42.23
2018-02-04T04:53:53.847Z,42.28
2018-02-04T04:54:54.554Z,42.27
2018-02-04T04:55:54.130Z,42.27
2018-02-04T04:56:53.737Z,42.29
2018-02-04T04:57:54.302Z,42.25
2018-02-04T04:58:53.878Z,42.26
2018-02-04T04:59:54.468Z,42.29
2018-02-04T05:00:54.051Z,42.27
2018-02-04T05:01:53.657Z,42.29
2018-02-04T05:02:54.259Z,42.27
2018-02-04T05:03:53.829Z,42.32
2018-02-04T05:04:54.501Z,42.29
2018-02-04T05:05:54.098Z,42.28
2018-02-04T05:06:53.679Z,42.31
2018-02-04T05:07:54.273Z,42.3
2018-02-04T05:08:53.877Z,42.31
2018-02-04T05:09:53.468Z,42.33
2018-02-04T05:10:54.081Z,42.34
2018-02-04T05:11:53.729Z,42.33
2018-02-04T05:12:54.352Z,42.33
2018-02-04T05:13:54.176Z,42.33
2018-02-04T05:14:53.756Z,42.35
2018-02-04T05:15:54.333Z,42.32
2018-02-04T05:16:53.916Z,42.31
2018-02-04T05:17:53.544Z,42.3
2018-02-04T05:18:54.142Z,42.32
2018-02-04T05:19:53.729Z,42.31
2018-02-04T05:20:54.325Z,42.3
2018-02-04T05:21:53.905Z,42.25
2018-02-04T05:22:53.556Z,42.26
2018-02-04T05:23:54.160Z,42.22
2018-02-04T05:24:53.739Z,42.15
2018-02-04T05:25:54.318Z,42.17
2018-02-04T05:26:53.957Z,42.19
2018-02-04T05:27:53.549Z,42.19
2018-02-04T05:28:54.182Z,42.07
2018-02-04T05:29:53.778Z,42.08
2018-02-04T05:30:54.364Z,42.06
2018-02-04T05:31:53.945Z,42.06
2018-02-04T05:32:53.704Z,42.04
2018-02-04T05:33:54.312Z,42.06
2018-02-04T05:34:54.097Z,42.06
2018-02-04T05:35:53.906Z,42.06
2018-02-04T05:36:54.490Z,42.07
2018-02-04T05:37:54.083Z,42.06
2018-02-04T05:38:54.751Z,42.05
2018-02-04T05:39:54.351Z,42.02
2018-02-04T05:40:53.944Z,42.07
2018-02-04T05:41:54.529Z,42.06
2018-02-04T05:42:54.112Z,42.04
2018-02-04T05:43:54.713Z,42.06
2018-02-04T05:44:54.499Z,42.06
2018-02-04T05:46:55.598Z,42.11
2018-02-04T05:47:54.190Z,42.11
2018-02-04T05:48:54.756Z,42.03
2018-02-04T05:49:54.345Z,42.06
2018-02-04T05:50:53.990Z,42.05
2018-02-04T05:51:54.586Z,42.04
2018-02-04T05:52:54.180Z,42.08
2018-02-04T05:53:54.761Z,42.11
2018-02-04T05:54:54.341Z,42.08
2018-02-04T05:55:53.916Z,42.12
2018-02-04T05:56:54.593Z,42.06
2018-02-04T05:57:54.174Z,42.06
2018-02-04T05:58:54.762Z,42.07
2018-02-04T05:59:54.345Z,42.12
2018-02-04T06:00:53.968Z,42.12
2018-02-04T06:01:54.549Z,42.08
2018-02-04T06:02:54.141Z,42.16
2018-02-04T06:03:54.724Z,42.12
2018-02-04T06:04:54.322Z,42.09
2018-02-04T06:05:53.951Z,42.12
2018-02-04T06:06:54.581Z,42.09
2018-02-04T06:07:54.168Z,42.11
2018-02-04T06:08:54.770Z,42.1
2018-02-04T06:09:54.426Z,42.1
2018-02-04T06:10:54.054Z,42.1
2018-02-04T06:11:55.083Z,42.1
2018-02-04T06:12:54.735Z,42.07
2018-02-04T06:13:54.320Z,42.08
2018-02-04T06:14:53.900Z,42.07
2018-02-04T06:15:54.502Z,42.09
2018-02-04T06:16:54.109Z,42.07
2018-02-04T06:17:54.716Z,42.09
2018-02-04T06:18:54.319Z,42.05
2018-02-04T06:19:53.915Z,42.05
2018-02-04T06:20:54.506Z,42.07
2018-02-04T06:21:54.089Z,42.07
2018-02-04T06:22:54.723Z,42.05
2018-02-04T06:23:54.311Z,42.06
2018-02-04T06:24:53.885Z,42.03
2018-02-04T06:25:54.472Z,42.03
2018-02-04T06:26:54.060Z,42.04
2018-02-04T06:27:54.697Z,42.03
2018-02-04T06:28:54.282Z,42.02
2018-02-04T06:29:54.877Z,42.04
2018-02-04T06:30:54.486Z,42.01
2018-02-04T06:31:54.153Z,41.97
2018-02-04T06:32:54.735Z,42
2018-02-04T06:33:54.324Z,42.01
2018-02-04T06:34:54.046Z,42
2018-02-04T06:35:55.002Z,41.99
2018-02-04T06:36:54.584Z,41.99
2018-02-04T06:37:54.212Z,41.98
2018-02-04T06:38:54.822Z,42
2018-02-04T06:39:54.419Z,41.97
2018-02-04T06:40:54.004Z,41.97
2018-02-04T06:41:54.621Z,41.94
2018-02-04T06:42:54.201Z,41.92
2018-02-04T06:43:54.948Z,41.93
2018-02-04T06:44:54.529Z,41.93
2018-02-04T06:45:54.132Z,41.95
2018-02-04T06:46:54.772Z,41.94
2018-02-04T06:47:54.370Z,41.92
2018-02-04T06:48:53.985Z,41.94
2018-02-04T06:49:54.569Z,41.91
2018-02-04T06:50:54.161Z,41.92
2018-02-04T06:51:55.061Z,41.91
2018-02-04T06:52:54.640Z,41.91
2018-02-04T06:53:54.219Z,41.94
2018-02-04T06:54:54.797Z,41.91
2018-02-04T06:55:54.391Z,41.88
2018-02-04T06:56:54.089Z,41.91
2018-02-04T06:57:54.700Z,41.9
2018-02-04T06:58:54.298Z,41.9
2018-02-04T06:59:54.893Z,41.88
2018-02-04T07:00:54.482Z,41.88
2018-02-04T07:01:54.071Z,41.85
2018-02-04T07:02:54.729Z,41.87
2018-02-04T07:03:54.338Z,41.87
2018-02-04T07:04:54.993Z,41.86
2018-02-04T07:05:54.657Z,41.85
2018-02-04T07:06:54.259Z,41.88
2018-02-04T07:07:54.836Z,41.83
2018-02-04T07:08:54.518Z,41.83
2018-02-04T07:09:55.156Z,41.77
2018-02-04T07:10:54.778Z,41.77
2018-02-04T07:11:54.356Z,41.82
2018-02-04T07:12:54.927Z,41.83
2018-02-04T07:13:54.517Z,41.83
2018-02-04T07:14:55.293Z,41.83
2018-02-04T07:15:54.888Z,41.83
2018-02-04T07:16:54.475Z,41.8
2018-02-04T07:17:55.065Z,41.82
2018-02-04T07:18:54.627Z,41.81
2018-02-04T07:19:55.361Z,41.81
2018-02-04T07:20:54.948Z,41.8
2018-02-04T07:21:54.545Z,41.79
2018-02-04T07:22:55.124Z,41.78
2018-02-04T07:23:54.706Z,41.78
2018-02-04T07:24:54.300Z,41.81
2018-02-04T07:25:54.881Z,41.77
2018-02-04T07:26:54.479Z,41.78
2018-02-04T07:27:55.055Z,41.78
2018-02-04T07:28:54.688Z,41.75
2018-02-04T07:29:54.282Z,41.78
2018-02-04T07:30:54.882Z,41.75
2018-02-04T07:31:54.464Z,41.77
2018-02-04T07:32:55.057Z,41.74
2018-02-04T07:33:54.765Z,41.74
2018-02-04T07:34:54.547Z,41.77
2018-02-04T07:35:55.168Z,41.77
2018-02-04T07:36:55.071Z,41.74
2018-02-04T07:37:54.660Z,41.73
2018-02-04T07:38:54.278Z,41.72
2018-02-04T07:39:54.987Z,41.76
2018-02-04T07:40:54.573Z,41.73
2018-02-04T07:41:54.172Z,41.7
2018-02-04T07:42:54.807Z,41.72
2018-02-04T07:43:54.315Z,41.71
2018-02-04T07:44:54.930Z,41.7
2018-02-04T07:45:54.530Z,41.74
2018-02-04T07:46:54.148Z,41.71
2018-02-04T07:47:54.745Z,41.67
2018-02-04T07:48:54.338Z,41.7
2018-02-04T07:49:54.943Z,41.67
2018-02-04T07:50:54.528Z,41.7
2018-02-04T07:51:54.142Z,41.7
2018-02-04T07:52:54.726Z,41.66
2018-02-04T07:53:54.308Z,41.68
2018-02-04T07:54:54.934Z,41.66
2018-02-04T07:55:54.554Z,41.67
2018-02-04T07:56:54.136Z,41.67
2018-02-04T07:57:54.723Z,41.67
2018-02-04T07:58:54.319Z,41.64
2018-02-04T07:59:54.903Z,41.67
2018-02-04T08:00:54.482Z,41.63
2018-02-04T08:01:54.079Z,41.66
2018-02-04T08:02:54.673Z,41.63
2018-02-04T08:03:54.267Z,41.57
2018-02-04T08:04:54.976Z,41.63
2018-02-04T08:05:54.629Z,41.66
2018-02-04T08:06:54.220Z,41.62
2018-02-04T08:07:54.845Z,41.61
2018-02-04T08:08:54.449Z,41.62
2018-02-04T08:09:54.057Z,41.64
2018-02-04T08:10:54.519Z,41.61
2018-02-04T08:11:54.108Z,41.6
2018-02-04T08:12:54.684Z,41.6
2018-02-04T08:13:54.295Z,41.55
2018-02-04T08:14:54.018Z,41.6
2018-02-04T08:15:54.603Z,41.58
2018-02-04T08:16:54.236Z,41.56
2018-02-04T08:17:53.869Z,41.63
2018-02-04T08:18:54.465Z,41.58
2018-02-04T08:19:54.072Z,41.62
2018-02-04T08:20:54.653Z,41.58
2018-02-04T08:21:54.313Z,41.61
2018-02-04T08:22:53.906Z,41.61
2018-02-04T08:23:54.602Z,41.55
2018-02-04T08:24:54.208Z,41.57
2018-02-04T08:25:53.869Z,41.58
2018-02-04T08:26:54.463Z,41.55
2018-02-04T08:27:54.111Z,41.55
2018-02-04T08:28:54.716Z,41.56
2018-02-04T08:29:54.344Z,41.57
2018-02-04T08:30:54.101Z,41.54
2018-02-04T08:31:54.690Z,41.54
2018-02-04T08:32:54.290Z,41.54
2018-02-04T08:33:53.884Z,41.52
2018-02-04T08:34:54.491Z,41.56
2018-02-04T08:35:54.113Z,41.55
2018-02-04T08:36:54.773Z,41.54
2018-02-04T08:37:54.609Z,41.55
2018-02-04T08:38:54.260Z,41.47
2018-02-04T08:39:54.920Z,41.53
2018-02-04T08:40:54.535Z,41.49
2018-02-04T08:41:55.154Z,41.5
2018-02-04T08:42:54.752Z,41.47
2018-02-04T08:43:54.344Z,41.51
2018-02-04T08:44:54.944Z,41.45
2018-02-04T08:45:54.563Z,41.48
2018-02-04T08:46:55.163Z,41.48
2018-02-04T08:47:54.816Z,41.49
2018-02-04T08:48:54.550Z,41.46
2018-02-04T08:49:55.091Z,41.46
2018-02-04T08:50:54.687Z,41.46
2018-02-04T08:51:54.349Z,41.48
2018-02-04T08:52:54.949Z,41.42
2018-02-04T08:53:54.571Z,41.43
2018-02-04T08:54:55.165Z,41.44
2018-02-04T08:55:54.781Z,41.48
2018-02-04T08:56:54.360Z,41.43
2018-02-04T08:57:55.120Z,41.42
2018-02-04T08:58:54.763Z,41.38
2018-02-04T08:59:54.372Z,41.44
2018-02-04T09:00:54.973Z,41.42
2018-02-04T09:01:54.565Z,41.43
2018-02-04T09:02:55.152Z,41.42
2018-02-04T09:03:54.788Z,41.42
2018-02-04T09:04:54.398Z,41.4
2018-02-04T09:05:55.042Z,41.42
2018-02-04T09:06:54.608Z,41.38
2018-02-04T09:07:54.198Z,41.4
2018-02-04T09:08:54.954Z,41.39
2018-02-04T09:09:54.575Z,41.4
2018-02-04T09:10:54.245Z,41.35
2018-02-04T09:11:54.839Z,41.35
2018-02-04T09:12:54.447Z,41.37
2018-02-04T09:13:54.134Z,41.4
2018-02-04T09:14:54.784Z,41.34
2018-02-04T09:15:54.389Z,41.34
2018-02-04T09:16:54.011Z,41.36
2018-02-04T09:17:54.612Z,41.36
2018-02-04T09:18:54.231Z,41.35
2018-02-04T09:19:55.024Z,41.38
2018-02-04T09:20:54.690Z,41.34
2018-02-04T09:21:54.299Z,41.34
2018-02-04T09:22:53.979Z,41.36
2018-02-04T09:23:54.584Z,41.36
2018-02-04T09:24:54.216Z,41.3
2018-02-04T09:25:54.814Z,41.36
2018-02-04T09:26:54.437Z,41.35
2018-02-04T09:27:54.048Z,41.3
2018-02-04T09:28:54.667Z,41.36
2018-02-04T09:29:54.250Z,41.33
2018-02-04T09:30:54.846Z,41.34
2018-02-04T09:31:54.460Z,41.34
2018-02-04T09:32:54.068Z,41.37
2018-02-04T09:33:54.665Z,41.35
2018-02-04T09:34:54.209Z,41.31
2018-02-04T09:35:54.807Z,41.36
2018-02-04T09:36:54.421Z,41.35
2018-02-04T09:37:54.020Z,41.3
2018-02-04T09:38:54.826Z,41.34
2018-02-04T09:39:54.447Z,41.34
2018-02-04T09:40:54.089Z,41.97
2018-02-04T09:41:53.683Z,41.98
2018-02-04T09:42:54.286Z,41.04
2018-02-04T09:43:53.888Z,41.45
2018-02-04T09:44:53.455Z,41.4
2018-02-04T09:45:54.113Z,41.62
2018-02-04T09:46:53.750Z,41.68
2018-02-04T09:47:54.343Z,41.71
2018-02-04T09:48:53.994Z,41.8
2018-02-04T09:49:53.677Z,41.98
2018-02-04T09:50:54.348Z,41.94
2018-02-04T09:51:53.954Z,41.91
2018-02-04T09:52:53.662Z,41.96
2018-02-04T09:53:54.286Z,42
2018-02-04T09:54:53.856Z,41.99
2018-02-04T09:55:53.524Z,42.01
2018-02-04T09:56:54.152Z,42.04
2018-02-04T09:57:53.841Z,42.06
2018-02-04T09:58:53.484Z,42.04
2018-02-04T09:59:28.370Z,42.51
2018-02-04T10:00:28.009Z,42.48
2018-02-04T10:01:28.628Z,41.29
2018-02-04T10:02:28.186Z,41.32
2018-02-04T10:03:28.782Z,41.37
2018-02-04T10:04:28.349Z,41.43
2018-02-04T10:05:27.928Z,41.47
2018-02-04T10:06:28.501Z,41.5
2018-02-04T10:07:28.163Z,41.54
2018-02-04T10:08:28.720Z,41.58
2018-02-04T10:09:28.280Z,41.55
2018-02-04T10:10:27.919Z,41.54
2018-02-04T10:11:09.312Z,41.14
2018-02-04T10:12:09.206Z,41.09
2018-02-04T10:13:08.890Z,41.41
2018-02-04T10:14:09.504Z,41.43
2018-02-04T10:15:09.094Z,41.48
2018-02-04T10:16:09.708Z,41.12
2018-02-04T10:17:09.374Z,41.08
2018-02-04T10:18:09.016Z,41.15
2018-02-04T10:19:09.623Z,41.21
2018-02-04T10:20:09.228Z,41.25
2018-02-04T10:21:08.856Z,41.21
2018-02-04T10:22:09.577Z,41.17
2018-02-04T10:23:09.182Z,41.21
2018-02-04T10:24:08.779Z,41.2
2018-02-04T10:25:09.391Z,41.17
2018-02-04T10:26:09.029Z,41.14
2018-02-04T10:27:09.649Z,41.14
2018-02-04T10:28:09.237Z,41.08
2018-02-04T10:29:08.836Z,41.08
2018-02-04T10:30:09.429Z,41.06
2018-02-04T10:31:09.044Z,41.08
2018-02-04T10:32:09.634Z,41.11
2018-02-04T10:33:09.262Z,41.05
2018-02-04T10:34:08.883Z,41.05
2018-02-04T10:35:09.480Z,41.09
2018-02-04T10:36:09.073Z,41.16
2018-02-04T10:37:09.713Z,41.42
2018-02-04T10:38:09.349Z,41.53
2018-02-04T10:39:09.055Z,41.85
2018-02-04T10:40:09.681Z,41.58
2018-02-04T10:41:09.326Z,42.52
2018-02-04T10:42:09.039Z,41.25
2018-02-04T10:43:08.634Z,41.26
2018-02-04T10:44:09.314Z,41.2
2018-02-04T10:45:08.932Z,41.17
2018-02-04T10:46:08.545Z,41.42
2018-02-04T10:47:09.211Z,41.17
2018-02-04T10:48:08.873Z,41.06
2018-02-04T10:49:08.473Z,41.06
2018-02-04T10:50:09.064Z,41.07
2018-02-04T10:51:08.668Z,41.06
2018-02-04T10:52:09.306Z,41.05
2018-02-04T10:53:08.901Z,41.28
2018-02-04T10:54:08.556Z,41.03
2018-02-04T10:55:09.164Z,41.05
2018-02-04T10:56:08.780Z,41.03
2018-02-04T10:57:08.557Z,40.98
2018-02-04T10:58:09.163Z,41.08
2018-02-04T10:59:08.806Z,40.88
2018-02-04T11:00:08.461Z,40.67
2018-02-04T11:01:09.070Z,40.66
2018-02-04T11:02:08.657Z,40.29
2018-02-04T11:03:09.250Z,39.96
2018-02-04T11:04:08.950Z,39.86
2018-02-04T11:05:08.564Z,40.38
2018-02-04T11:06:09.240Z,40.58
2018-02-04T11:07:08.821Z,40.79
2018-02-04T11:08:08.439Z,40.51
2018-02-04T11:09:09.066Z,40.72
2018-02-04T11:10:08.658Z,40.87
2018-02-04T11:11:09.563Z,39.54
2018-02-04T11:12:08.648Z,38.63
2018-02-04T11:13:09.241Z,37.91
2018-02-04T11:14:08.836Z,37.87
2018-02-04T11:15:09.415Z,38.91
2018-02-04T11:16:09.062Z,37.42
2018-02-04T11:17:08.671Z,36.49
2018-02-04T11:18:09.314Z,37.3
2018-02-04T11:19:08.924Z,37.66
2018-02-04T11:20:09.509Z,37.79
2018-02-04T11:21:09.140Z,37.81
2018-02-04T11:22:08.753Z,37.95
2018-02-04T11:23:09.350Z,37.83
2018-02-04T11:24:08.933Z,37.77
2018-02-04T11:25:09.552Z,38.07
2018-02-04T11:26:09.140Z,38.15
2018-02-04T11:27:08.770Z,38.4
2018-02-04T11:28:09.367Z,38.47
2018-02-04T11:29:08.957Z,38.59
2018-02-04T11:30:09.564Z,38.72
2018-02-04T11:31:09.171Z,39
2018-02-04T11:32:09.067Z,39.01
2018-02-04T11:33:08.700Z,39.42
2018-02-04T11:34:09.381Z,38.34
2018-02-04T11:35:09.005Z,38.31
2018-02-04T11:36:08.617Z,38.41
2018-02-04T11:37:09.304Z,39.07
2018-02-04T11:38:08.895Z,38.36
2018-02-04T11:39:09.494Z,38.85
2018-02-04T11:40:09.141Z,38.69
2018-02-04T11:41:08.790Z,38.69
2018-02-04T11:42:09.394Z,38.68
2018-02-04T11:43:09.091Z,38.62
2018-02-04T11:44:08.691Z,38.62
2018-02-04T11:45:09.369Z,38.96
2018-02-04T11:46:08.965Z,38.82
2018-02-04T11:47:08.547Z,38.95
2018-02-04T11:48:09.155Z,39.06
2018-02-04T11:49:08.771Z,39.09
2018-02-04T11:50:08.586Z,39.15
2018-02-04T11:51:09.237Z,39.21
2018-02-04T11:52:08.828Z,39.14
2018-02-04T11:53:08.438Z,39.07
2018-02-04T11:54:09.124Z,39.02
2018-02-04T11:55:08.735Z,39.08
2018-02-04T11:56:08.351Z,39.15
2018-02-04T11:57:08.939Z,39.48
2018-02-04T11:58:08.538Z,39.38
2018-02-04T11:59:09.217Z,39.2
2018-02-04T12:00:09.008Z,39.27
2018-02-04T12:01:08.630Z,39.25
2018-02-04T12:02:09.412Z,39.48
2018-02-04T12:03:09.100Z,39.61
2018-02-04T12:04:08.629Z,39.58
2018-02-04T12:05:09.262Z,39.67
2018-02-04T12:06:08.864Z,39.7
2018-02-04T12:07:08.466Z,39.74
2018-02-04T12:08:09.074Z,39.31
2018-02-04T12:09:08.688Z,39.2
2018-02-04T12:10:09.271Z,39.29
2018-02-04T12:11:08.882Z,39.28
2018-02-04T12:12:08.626Z,39.49
2018-02-04T12:13:08.520Z,39.49
2018-02-04T12:14:09.082Z,39.54
2018-02-04T12:15:08.752Z,39.58
2018-02-04T12:16:09.373Z,39.58
2018-02-04T12:17:08.973Z,39.42
2018-02-04T12:18:08.708Z,39.65
2018-02-04T12:19:09.407Z,39.48
2018-02-04T12:20:09.050Z,39.66
2018-02-04T12:21:09.055Z,38.89
2018-02-04T12:22:08.694Z,38.83
2018-02-04T12:23:09.288Z,39.29
2018-02-04T12:24:09.132Z,39.48
2018-02-04T12:26:09.154Z,39.14
2018-02-04T12:27:08.761Z,38.74
2018-02-04T12:28:09.360Z,38.91
2018-02-04T12:29:08.972Z,39.09
2018-02-04T12:30:08.570Z,39.21
2018-02-04T12:31:09.183Z,39.3
2018-02-04T12:32:08.793Z,39.38
2018-02-04T12:33:09.426Z,39.42
2018-02-04T12:35:08.464Z,39.49
2018-02-04T12:36:09.109Z,39.53
2018-02-04T12:37:08.788Z,39.59
2018-02-04T12:38:10.332Z,39.62
2018-02-04T12:39:08.867Z,39.7
2018-02-04T12:40:08.591Z,39.71
2018-02-04T12:41:09.193Z,39.93
2018-02-04T12:42:08.831Z,39.75
2018-02-04T12:43:08.665Z,39.76
2018-02-04T12:44:09.252Z,39.67
2018-02-04T12:45:08.957Z,39.53
2018-02-04T12:46:08.666Z,39.49
2018-02-04T12:47:09.317Z,39.43
2018-02-04T12:48:08.924Z,39.45
2018-02-04T12:49:08.541Z,38.77
2018-02-04T12:50:09.166Z,37.97
2018-02-04T12:51:08.764Z,38.01
2018-02-04T12:52:09.390Z,38.28
2018-02-04T12:53:09.012Z,38.54
2018-02-04T12:54:08.628Z,38.87
2018-02-04T12:55:37.851Z,38.51
2018-02-04T12:56:37.484Z,38.5
2018-02-04T12:57:38.115Z,38.69
2018-02-04T12:58:37.744Z,38.81
2018-02-04T13:00:37.740Z,38.93